Time;durP1;ratioP1;P1;durP2;ratioP2;P2;SDS_P1;SDS_P2;PMS_P1;PMS_P2;Temp;Humidity;BMP_temperature;BMP_pressure;BME280_temperature;BME280_humidity;BME280_pressure;Samples;Min_cycle;Max_cycle;Signal;HPM_P1;HPM_P2
2023/06/22 00:04:43;;;;;;;18.73;9.82;;;16.10;99.90;;;;;;21155104;28;20032;-46
2023/06/22 00:14:45;;;;;;;16.20;9.65;;;16.10;99.90;;;;;;21135532;28;20036;-50
2023/06/22 00:24:47;;;;;;;20.77;9.68;;;16.00;99.90;;;;;;21153726;28;20027;-45
2023/06/22 00:34:50;;;;;;;15.65;10.20;;;15.90;99.90;;;;;;21152949;28;20032;-49
2023/06/22 00:44:52;;;;;;;16.75;10.10;;;15.90;99.90;;;;;;21151582;28;20404;-45
2023/06/22 00:54:54;;;;;;;18.00;10.48;;;15.90;99.90;;;;;;21151647;28;20027;-51
2023/06/22 01:04:56;;;;;;;22.92;10.57;;;15.90;99.90;;;;;;21130342;28;20080;-46
2023/06/22 01:15:29;;;;;;;17.98;11.48;;;15.90;99.90;;;;;;21131100;28;20065;-51
2023/06/22 01:25:47;;;;;;;16.95;11.50;;;15.90;99.90;;;;;;21126475;28;20074;-51
2023/06/22 01:35:49;;;;;;;16.83;11.82;;;15.90;99.90;;;;;;21126884;28;20031;-46
2023/06/22 01:45:52;;;;;;;13.43;8.98;;;16.00;99.90;;;;;;21147505;28;20104;-52
2023/06/22 01:55:55;;;;;;;18.95;8.40;;;15.90;99.90;;;;;;21129029;28;20047;-49
2023/06/22 02:06:09;;;;;;;16.38;8.65;;;15.80;99.90;;;;;;21128900;28;20333;-48
2023/06/22 02:16:12;;;;;;;17.70;9.88;;;15.90;99.90;;;;;;21160792;28;20084;-48
2023/06/22 02:26:17;;;;;;;18.35;11.02;;;15.80;99.90;;;;;;21145836;28;20435;-46
2023/06/22 02:36:24;;;;;;;20.08;9.32;;;15.60;99.90;;;;;;21159530;28;20031;-49
2023/06/22 02:46:26;;;;;;;16.42;8.90;;;15.80;99.90;;;;;;21175227;27;20036;-59
2023/06/22 02:56:31;;;;;;;12.23;6.25;;;15.70;99.90;;;;;;21139528;28;20031;-50
2023/06/22 03:06:36;;;;;;;16.27;6.78;;;16.50;99.90;;;;;;21142091;28;20046;-50
2023/06/22 03:16:40;;;;;;;24.05;5.45;;;15.40;99.90;;;;;;21141077;28;20027;-49
2023/06/22 03:26:42;;;;;;;14.20;5.20;;;15.40;99.90;;;;;;21139872;28;20028;-53
2023/06/22 03:36:45;;;;;;;16.08;5.00;;;15.30;99.90;;;;;;21158058;28;20079;-52
2023/06/22 03:46:47;;;;;;;13.40;5.43;;;15.60;99.90;;;;;;21137338;28;20058;-50
2023/06/22 03:56:49;;;;;;;13.48;5.53;;;15.80;99.90;;;;;;21156350;28;20089;-53
2023/06/22 04:06:50;;;;;;;16.77;5.25;;;15.90;99.90;;;;;;21155569;28;20478;-48
2023/06/22 04:16:52;;;;;;;16.83;5.43;;;16.20;99.90;;;;;;21154552;28;20027;-47
2023/06/22 04:26:54;;;;;;;16.08;5.15;;;16.40;99.90;;;;;;21153556;28;20089;-46
2023/06/22 04:36:57;;;;;;;15.88;5.97;;;16.90;99.90;;;;;;21153303;28;20100;-49
2023/06/22 04:47:03;;;;;;;13.90;4.97;;;17.20;99.90;;;;;;21151829;28;20097;-52
2023/06/22 04:57:10;;;;;;;13.43;5.20;;;17.40;99.90;;;;;;21149524;28;20032;-50
2023/06/22 05:07:12;;;;;;;13.32;4.30;;;17.60;99.90;;;;;;21150782;28;20031;-52
2023/06/22 05:17:14;;;;;;;11.85;4.20;;;17.70;99.90;;;;;;21149722;28;20031;-51
2023/06/22 05:27:19;;;;;;;11.30;4.28;;;18.10;99.90;;;;;;21148931;28;20685;-48
2023/06/22 05:37:21;;;;;;;14.35;4.70;;;18.60;99.90;;;;;;21148563;28;20560;-52
2023/06/22 05:47:23;;;;;;;10.30;4.82;;;19.20;99.90;;;;;;21147713;28;20100;-47
2023/06/22 05:57:24;;;;;;;21.40;5.07;;;19.60;99.90;;;;;;21147177;28;20039;-51
2023/06/22 06:07:27;;;;;;;16.27;6.00;;;19.30;99.90;;;;;;21146495;28;20027;-47
2023/06/22 06:17:29;;;;;;;15.60;5.35;;;19.40;99.90;;;;;;21145773;28;20039;-52
2023/06/22 06:27:31;;;;;;;15.82;5.22;;;19.70;99.90;;;;;;21145484;28;20035;-51
2023/06/22 06:37:37;;;;;;;15.55;4.95;;;20.00;99.90;;;;;;21146135;28;20031;-55
2023/06/22 06:47:39;;;;;;;16.05;4.20;;;20.20;99.90;;;;;;21144729;28;20088;-50
2023/06/22 06:57:42;;;;;;;13.05;4.22;;;20.50;99.90;;;;;;21145066;28;20081;-49
2023/06/22 07:07:44;;;;;;;18.73;4.70;;;21.90;99.90;;;;;;21145690;28;20553;-52
2023/06/22 07:17:46;;;;;;;14.57;4.80;;;23.00;99.90;;;;;;21148070;28;20027;-48
2023/06/22 07:28:02;;;;;;;12.00;5.00;;;24.60;99.30;;;;;;21158309;28;20034;-52
2023/06/22 07:38:05;;;;;;;13.37;4.50;;;25.80;96.70;;;;;;21157520;28;20028;-54
2023/06/22 07:48:10;;;;;;;11.35;5.00;;;25.80;98.50;;;;;;21156735;28;20504;-48
2023/06/22 07:58:12;;;;;;;14.67;5.40;;;27.90;93.80;;;;;;21152141;28;20028;-53
2023/06/22 08:08:14;;;;;;;12.63;5.93;;;29.10;90.20;;;;;;21154987;28;20089;-52
2023/06/22 08:18:16;;;;;;;12.02;6.05;;;30.30;90.40;;;;;;21169957;27;20040;-50
2023/06/22 08:28:18;;;;;;;10.68;6.82;;;30.60;90.20;;;;;;21153130;28;20035;-54
2023/06/22 08:38:19;;;;;;;12.57;6.20;;;30.80;88.30;;;;;;21154129;28;20024;-50
2023/06/22 08:48:21;;;;;;;18.38;7.60;;;31.00;86.70;;;;;;21151522;28;20039;-55
2023/06/22 08:58:24;;;;;;;18.75;7.25;;;31.30;89.50;;;;;;21152416;28;20097;-56
2023/06/22 09:08:25;;;;;;;13.98;7.60;;;31.00;87.50;;;;;;21150704;28;20477;-53
2023/06/22 09:18:27;;;;;;;12.20;7.28;;;29.70;89.90;;;;;;21148920;28;20069;-52
2023/06/22 09:28:29;;;;;;;15.43;8.18;;;28.60;91.60;;;;;;21148525;28;20081;-52
2023/06/22 09:38:31;;;;;;;15.73;8.35;;;29.40;92.60;;;;;;21147682;28;20044;-54
2023/06/22 09:48:33;;;;;;;18.05;10.65;;;30.80;92.30;;;;;;21147861;28;20089;-55
2023/06/22 09:58:34;;;;;;;15.48;9.43;;;31.90;91.00;;;;;;21128900;28;20496;-55
2023/06/22 10:08:36;;;;;;;16.55;9.27;;;31.80;91.80;;;;;;21146851;28;20036;-54
2023/06/22 10:18:38;;;;;;;13.50;9.65;;;31.40;91.00;;;;;;21146390;28;20031;-53
2023/06/22 10:28:39;;;;;;;15.05;10.30;;;31.00;91.20;;;;;;21145601;28;20053;-54
2023/06/22 10:38:41;;;;;;;15.45;10.55;;;31.60;91.70;;;;;;21145465;28;20031;-55
2023/06/22 10:48:42;;;;;;;15.70;9.43;;;32.00;91.70;;;;;;21145138;28;20023;-55
2023/06/22 10:58:45;;;;;;;16.05;9.30;;;32.10;90.20;;;;;;21160499;28;20027;-55
2023/06/22 11:08:47;;;;;;;16.02;8.48;;;32.20;90.60;;;;;;21159759;28;20480;-55
2023/06/22 11:18:48;;;;;;;13.93;8.48;;;32.60;91.20;;;;;;21159349;28;20039;-54
2023/06/22 11:28:50;;;;;;;12.93;9.43;;;32.60;90.50;;;;;;21158519;28;20106;-46
2023/06/22 11:38:51;;;;;;;13.73;9.50;;;32.50;91.20;;;;;;21157987;28;20044;-47
2023/06/22 11:48:53;;;;;;;13.60;9.52;;;32.30;90.70;;;;;;21156508;28;20039;-57
2023/06/22 11:58:55;;;;;;;15.43;8.80;;;32.00;88.10;;;;;;21155909;28;20049;-55
2023/06/22 12:08:56;;;;;;;13.45;7.55;;;32.20;89.90;;;;;;21154614;28;20031;-56
2023/06/22 12:18:58;;;;;;;16.80;6.05;;;32.30;86.80;;;;;;21154534;28;20459;-56
2023/06/22 12:28:59;;;;;;;16.02;7.78;;;32.40;82.80;;;;;;21153977;28;20031;-56
2023/06/22 12:39:01;;;;;;;12.88;6.10;;;32.40;86.00;;;;;;21152896;28;20047;-55
2023/06/22 12:49:04;;;;;;;16.02;8.10;;;32.30;81.10;;;;;;21149546;28;20036;-55
2023/06/22 12:59:06;;;;;;;14.75;8.45;;;32.40;85.50;;;;;;21150933;28;20028;-55
2023/06/22 13:09:09;;;;;;;15.70;8.05;;;32.20;85.90;;;;;;21150605;28;20036;-53
2023/06/22 13:19:11;;;;;;;16.33;8.70;;;32.00;86.40;;;;;;21149785;28;20028;-54
2023/06/22 13:29:13;;;;;;;16.42;9.23;;;32.10;84.70;;;;;;21148785;28;20080;-55
2023/06/22 13:39:14;;;;;;;14.85;8.60;;;32.20;86.10;;;;;;21139157;28;20049;-55
2023/06/22 13:49:16;;;;;;;16.17;8.05;;;31.90;87.10;;;;;;21147602;28;20035;-47
2023/06/22 13:59:19;;;;;;;16.27;8.30;;;31.70;87.20;;;;;;21147223;28;20043;-47
2023/06/22 14:09:22;;;;;;;13.82;9.38;;;32.10;85.60;;;;;;21144217;28;20073;-55
2023/06/22 14:19:24;;;;;;;13.32;8.13;;;32.80;83.70;;;;;;21146211;28;20180;-53
2023/06/22 14:29:26;;;;;;;15.73;9.15;;;32.40;83.10;;;;;;21155394;28;20446;-49
2023/06/22 14:39:27;;;;;;;15.57;8.45;;;32.40;84.60;;;;;;21162767;28;20054;-54
2023/06/22 14:49:29;;;;;;;19.38;9.88;;;31.70;85.10;;;;;;21161807;28;20039;-50
2023/06/22 14:59:31;;;;;;;19.67;10.68;;;31.90;88.10;;;;;;21161087;28;20035;-46
2023/06/22 15:09:33;;;;;;;21.63;9.88;;;31.50;88.00;;;;;;21160746;28;20047;-54
2023/06/22 15:19:36;;;;;;;18.20;11.20;;;30.10;90.00;;;;;;21140871;28;20027;-54
2023/06/22 15:29:38;;;;;;;17.05;10.65;;;29.40;91.60;;;;;;21159941;28;20036;-55
2023/06/22 15:39:40;;;;;;;21.02;11.63;;;28.50;93.20;;;;;;21156615;28;20036;-46
2023/06/22 15:49:42;;;;;;;18.70;12.18;;;27.80;94.20;;;;;;21139035;28;20042;-50
2023/06/22 15:59:46;;;;;;;18.73;10.77;;;27.30;96.90;;;;;;21156323;28;20038;-51
2023/06/22 16:09:49;;;;;;;16.42;11.88;;;27.30;98.60;;;;;;21155863;28;20053;-55
2023/06/22 16:19:54;;;;;;;19.50;13.57;;;28.00;97.60;;;;;;21151329;28;20096;-54
2023/06/22 16:29:56;;;;;;;19.02;13.10;;;27.50;98.10;;;;;;21153883;28;20143;-52
2023/06/22 16:39:57;;;;;;;20.95;12.82;;;26.70;99.10;;;;;;21154070;28;20069;-54
2023/06/22 16:49:59;;;;;;;18.63;12.05;;;26.40;99.90;;;;;;21150313;28;20481;-54
2023/06/22 17:00:01;;;;;;;20.25;12.68;;;25.90;99.90;;;;;;21150725;28;20043;-53
2023/06/22 17:10:06;;;;;;;18.08;12.52;;;25.60;99.90;;;;;;21149801;27;20077;-54
2023/06/22 17:20:08;;;;;;;20.13;12.00;;;25.20;99.90;;;;;;21149042;28;20065;-53
2023/06/22 17:30:17;;;;;;;19.35;11.93;;;24.80;99.90;;;;;;21148094;28;20057;-49
2023/06/22 17:40:21;;;;;;;22.13;12.38;;;24.40;99.90;;;;;;21147819;28;20044;-52
2023/06/22 17:50:24;;;;;;;19.25;13.70;;;23.90;99.90;;;;;;21147536;28;20039;-54
2023/06/22 18:00:26;;;;;;;20.77;13.25;;;23.60;99.90;;;;;;21145330;28;20032;-51
2023/06/22 18:10:29;;;;;;;21.73;15.13;;;23.10;99.90;;;;;;21147225;28;20050;-48
2023/06/22 18:20:32;;;;;;;22.55;14.85;;;22.80;99.90;;;;;;21145897;28;20078;-52
2023/06/22 18:30:34;;;;;;;19.67;15.20;;;22.30;99.90;;;;;;21145384;28;20032;-53
2023/06/22 18:40:36;;;;;;;26.25;16.17;;;21.70;99.90;;;;;;21144918;28;20056;-45
2023/06/22 18:50:43;;;;;;;29.60;16.02;;;21.10;99.90;;;;;;21145223;28;20097;-47
2023/06/22 19:00:45;;;;;;;22.85;13.60;;;20.70;99.90;;;;;;21125821;28;20155;-53
2023/06/22 19:10:46;;;;;;;21.08;12.68;;;20.40;99.90;;;;;;21144939;28;20024;-51
2023/06/22 19:20:51;;;;;;;19.92;12.40;;;20.00;99.90;;;;;;21158967;28;20545;-54
2023/06/22 19:30:54;;;;;;;22.67;13.45;;;19.60;99.90;;;;;;21158517;28;20028;-49
2023/06/22 19:40:57;;;;;;;21.90;12.60;;;19.40;99.90;;;;;;21153365;28;20035;-55
2023/06/22 19:51:04;;;;;;;18.75;12.35;;;19.40;99.90;;;;;;21157224;28;20061;-53
2023/06/22 20:01:06;;;;;;;19.92;13.18;;;19.30;99.90;;;;;;21154401;28;20034;-49
2023/06/22 20:11:08;;;;;;;16.73;12.23;;;19.00;99.90;;;;;;21155026;28;20038;-52
2023/06/22 20:21:14;;;;;;;19.38;12.07;;;18.70;99.90;;;;;;21136574;28;20032;-49
2023/06/22 20:31:16;;;;;;;19.83;11.40;;;18.60;99.90;;;;;;21152840;28;20417;-47
2023/06/22 20:41:18;;;;;;;17.88;13.05;;;18.40;99.90;;;;;;21153275;28;20492;-49
2023/06/22 20:51:19;;;;;;;25.38;12.77;;;18.10;99.90;;;;;;21152033;28;20061;-50
2023/06/22 21:01:21;;;;;;;23.23;14.00;;;17.80;99.90;;;;;;21150471;28;20035;-52
2023/06/22 21:11:23;;;;;;;23.13;14.65;;;17.50;99.90;;;;;;21146905;28;20028;-52
2023/06/22 21:21:25;;;;;;;19.52;13.23;;;17.30;99.90;;;;;;21149560;28;20447;-49
2023/06/22 21:31:26;;;;;;;20.25;14.55;;;17.30;99.90;;;;;;21144333;28;20031;-52
2023/06/22 21:41:28;;;;;;;21.52;14.68;;;17.20;99.90;;;;;;21138328;28;20043;-53
2023/06/22 21:51:30;;;;;;;23.75;18.10;;;17.10;99.90;;;;;;21147939;28;20474;-49
2023/06/22 22:01:32;;;;;;;30.23;19.23;;;17.20;99.90;;;;;;21146779;28;20047;-49
2023/06/22 22:11:34;;;;;;;20.25;13.82;;;17.30;99.90;;;;;;21146486;28;20085;-48
2023/06/22 22:21:35;;;;;;;17.15;13.07;;;17.40;99.90;;;;;;21146386;28;20042;-49
2023/06/22 22:31:38;;;;;;;24.10;14.43;;;17.40;99.90;;;;;;21145911;28;20105;-50
2023/06/22 22:41:40;;;;;;;27.20;17.20;;;17.30;99.90;;;;;;21145283;28;20036;-45
2023/06/22 22:51:42;;;;;;;21.88;17.23;;;17.20;99.90;;;;;;21153052;28;20028;-48
2023/06/22 23:01:44;;;;;;;29.88;20.00;;;17.20;99.90;;;;;;21160966;28;20065;-52
2023/06/22 23:11:46;;;;;;;38.42;24.63;;;17.00;99.90;;;;;;21160136;28;20039;-48
2023/06/22 23:21:48;;;;;;;37.33;26.52;;;17.00;99.90;;;;;;21159481;28;20031;-51
2023/06/22 23:31:53;;;;;;;36.53;27.77;;;16.90;99.90;;;;;;21158613;28;20399;-50
2023/06/22 23:41:56;;;;;;;35.05;27.17;;;16.80;99.90;;;;;;21156716;28;20044;-53
2023/06/22 23:51:58;;;;;;;31.83;24.42;;;16.80;99.90;;;;;;21157695;28;20039;-47
